sensor_id;sensor_type;location;lat;lon;timestamp;pressure;altitude;pressure_sealevel;temperature;humidity
56604;BME280;42486;47.478;19.036;2023-05-19T00:02:23;100886.75;;;12.55;100.00
56604;BME280;42486;47.478;19.036;2023-05-19T00:05:28;100887.72;;;12.54;100.00
56604;BME280;42486;47.478;19.036;2023-05-19T00:08:33;100883.03;;;12.46;100.00
56604;BME280;42486;47.478;19.036;2023-05-19T00:11:36;100887.03;;;12.39;100.00
56604;BME280;42486;47.478;19.036;2023-05-19T00:14:40;100883.59;;;12.39;100.00
56604;BME280;42486;47.478;19.036;2023-05-19T00:17:46;100886.56;;;12.34;100.00
56604;BME280;42486;47.478;19.036;2023-05-19T00:20:50;100898.81;;;12.33;100.00
56604;BME280;42486;47.478;19.036;2023-05-19T00:23:54;100894.06;;;12.39;100.00
56604;BME280;42486;47.478;19.036;2023-05-19T00:26:58;100885.06;;;12.43;100.00
56604;BME280;42486;47.478;19.036;2023-05-19T00:30:02;100891.13;;;12.43;100.00
56604;BME280;42486;47.478;19.036;2023-05-19T00:33:06;100891.59;;;12.37;100.00
56604;BME280;42486;47.478;19.036;2023-05-19T00:36:10;100885.28;;;12.40;100.00
56604;BME280;42486;47.478;19.036;2023-05-19T00:39:13;100879.31;;;12.38;100.00
56604;BME280;42486;47.478;19.036;2023-05-19T00:42:19;100876.91;;;12.34;100.00
56604;BME280;42486;47.478;19.036;2023-05-19T00:45:24;100873.56;;;12.32;100.00
56604;BME280;42486;47.478;19.036;2023-05-19T00:48:28;100876.19;;;12.32;100.00
56604;BME280;42486;47.478;19.036;2023-05-19T00:51:33;100873.78;;;12.29;100.00
56604;BME280;42486;47.478;19.036;2023-05-19T00:54:36;100866.16;;;12.26;100.00
56604;BME280;42486;47.478;19.036;2023-05-19T00:57:40;100862.69;;;12.26;100.00
56604;BME280;42486;47.478;19.036;2023-05-19T01:00:45;100862.91;;;12.23;100.00
56604;BME280;42486;47.478;19.036;2023-05-19T01:03:49;100869.09;;;12.22;100.00
56604;BME280;42486;47.478;19.036;2023-05-19T01:06:54;100869.38;;;12.30;100.00
56604;BME280;42486;47.478;19.036;2023-05-19T01:09:58;100866.25;;;12.25;100.00
56604;BME280;42486;47.478;19.036;2023-05-19T01:13:04;100869.34;;;12.19;100.00
56604;BME280;42486;47.478;19.036;2023-05-19T01:29:21;100872.62;;;11.97;100.00
56604;BME280;42486;47.478;19.036;2023-05-19T01:32:31;100872.44;;;12.00;100.00
56604;BME280;42486;47.478;19.036;2023-05-19T01:35:36;100865.72;;;11.96;100.00
56604;BME280;42486;47.478;19.036;2023-05-19T01:38:42;100870.53;;;12.02;100.00
56604;BME280;42486;47.478;19.036;2023-05-19T01:41:47;100866.34;;;11.99;100.00
56604;BME280;42486;47.478;19.036;2023-05-19T01:44:51;100866.78;;;11.93;100.00
56604;BME280;42486;47.478;19.036;2023-05-19T01:47:56;100865.84;;;11.94;100.00
56604;BME280;42486;47.478;19.036;2023-05-19T01:51:00;100863.63;;;12.01;100.00
56604;BME280;42486;47.478;19.036;2023-05-19T01:54:03;100863.84;;;11.98;100.00
56604;BME280;42486;47.478;19.036;2023-05-19T01:57:23;100854.09;;;12.00;100.00
56604;BME280;42486;47.478;19.036;2023-05-19T02:07:49;100859.56;;;11.84;100.00
56604;BME280;42486;47.478;19.036;2023-05-19T02:10:26;100859.78;;;11.81;100.00
56604;BME280;42486;47.478;19.036;2023-05-19T02:13:36;100861.44;;;11.82;100.00
56604;BME280;42486;47.478;19.036;2023-05-19T02:16:39;100866.56;;;11.83;100.00
56604;BME280;42486;47.478;19.036;2023-05-19T02:19:46;100869.41;;;11.80;100.00
56604;BME280;42486;47.478;19.036;2023-05-19T02:22:50;100859.28;;;11.76;100.00
56604;BME280;42486;47.478;19.036;2023-05-19T02:26:01;100869.94;;;11.73;100.00
56604;BME280;42486;47.478;19.036;2023-05-19T02:47:46;100855.91;;;11.86;100.00
56604;BME280;42486;47.478;19.036;2023-05-19T02:50:49;100850.56;;;11.88;100.00
56604;BME280;42486;47.478;19.036;2023-05-19T02:53:52;100859.66;;;11.82;100.00
56604;BME280;42486;47.478;19.036;2023-05-19T02:56:55;100856.53;;;11.77;100.00
56604;BME280;42486;47.478;19.036;2023-05-19T02:59:58;100859.59;;;11.71;100.00
56604;BME280;42486;47.478;19.036;2023-05-19T03:03:02;100857.19;;;11.68;100.00
56604;BME280;42486;47.478;19.036;2023-05-19T03:06:07;100857.78;;;11.72;100.00
56604;BME280;42486;47.478;19.036;2023-05-19T03:09:11;100861.25;;;11.72;100.00
56604;BME280;42486;47.478;19.036;2023-05-19T03:12:15;100861.75;;;11.77;100.00
56604;BME280;42486;47.478;19.036;2023-05-19T03:15:18;100866.16;;;11.77;100.00
56604;BME280;42486;47.478;19.036;2023-05-19T03:18:25;100862.81;;;11.75;100.00
56604;BME280;42486;47.478;19.036;2023-05-19T03:21:28;100868.50;;;11.68;100.00
56604;BME280;42486;47.478;19.036;2023-05-19T03:24:33;100877.16;;;11.82;100.00
56604;BME280;42486;47.478;19.036;2023-05-19T03:27:39;100878.63;;;11.86;100.00
56604;BME280;42486;47.478;19.036;2023-05-19T03:30:42;100882.47;;;11.80;100.00
56604;BME280;42486;47.478;19.036;2023-05-19T03:33:46;100879.56;;;11.72;100.00
56604;BME280;42486;47.478;19.036;2023-05-19T03:36:50;100877.91;;;11.71;100.00
56604;BME280;42486;47.478;19.036;2023-05-19T03:39:57;100880.31;;;11.74;100.00
56604;BME280;42486;47.478;19.036;2023-05-19T03:43:01;100871.41;;;11.89;100.00
56604;BME280;42486;47.478;19.036;2023-05-19T03:46:04;100868.25;;;11.97;100.00
56604;BME280;42486;47.478;19.036;2023-05-19T03:49:08;100870.00;;;11.97;100.00
56604;BME280;42486;47.478;19.036;2023-05-19T03:52:12;100867.75;;;11.92;100.00
56604;BME280;42486;47.478;19.036;2023-05-19T03:55:15;100878.22;;;11.92;100.00
56604;BME280;42486;47.478;19.036;2023-05-19T03:58:21;100866.34;;;11.99;100.00
56604;BME280;42486;47.478;19.036;2023-05-19T04:01:27;100876.50;;;12.04;100.00
56604;BME280;42486;47.478;19.036;2023-05-19T04:04:30;100871.37;;;12.02;100.00
56604;BME280;42486;47.478;19.036;2023-05-19T04:07:34;100877.97;;;12.08;100.00
56604;BME280;42486;47.478;19.036;2023-05-19T04:10:43;100881.37;;;12.21;100.00
56604;BME280;42486;47.478;19.036;2023-05-19T04:13:45;100876.78;;;12.36;100.00
56604;BME280;42486;47.478;19.036;2023-05-19T04:16:48;100887.56;;;12.44;100.00
56604;BME280;42486;47.478;19.036;2023-05-19T04:19:53;100890.69;;;12.49;100.00
56604;BME280;42486;47.478;19.036;2023-05-19T04:23:03;100894.31;;;12.60;100.00
56604;BME280;42486;47.478;19.036;2023-05-19T04:26:10;100893.38;;;12.61;100.00
56604;BME280;42486;47.478;19.036;2023-05-19T04:29:17;100899.75;;;12.81;100.00
56604;BME280;42486;47.478;19.036;2023-05-19T04:32:22;100899.03;;;12.78;100.00
56604;BME280;42486;47.478;19.036;2023-05-19T04:35:26;100896.56;;;12.88;100.00
56604;BME280;42486;47.478;19.036;2023-05-19T04:38:31;100904.78;;;12.95;100.00
56604;BME280;42486;47.478;19.036;2023-05-19T04:41:35;100903.31;;;13.15;100.00
56604;BME280;42486;47.478;19.036;2023-05-19T04:44:42;100913.34;;;13.21;100.00
56604;BME280;42486;47.478;19.036;2023-05-19T04:47:47;100915.16;;;13.32;100.00
56604;BME280;42486;47.478;19.036;2023-05-19T04:50:49;100914.94;;;13.35;100.00
56604;BME280;42486;47.478;19.036;2023-05-19T04:53:54;100916.38;;;13.61;100.00
56604;BME280;42486;47.478;19.036;2023-05-19T04:56:58;100919.50;;;14.00;100.00
56604;BME280;42486;47.478;19.036;2023-05-19T05:00:02;100925.44;;;14.25;100.00
56604;BME280;42486;47.478;19.036;2023-05-19T05:03:09;100924.84;;;14.97;100.00
56604;BME280;42486;47.478;19.036;2023-05-19T05:06:13;100926.56;;;16.01;100.00
56604;BME280;42486;47.478;19.036;2023-05-19T05:09:16;100927.72;;;16.18;100.00
56604;BME280;42486;47.478;19.036;2023-05-19T05:12:22;100937.00;;;15.72;100.00
56604;BME280;42486;47.478;19.036;2023-05-19T05:15:26;100935.37;;;15.39;100.00
56604;BME280;42486;47.478;19.036;2023-05-19T05:18:32;100931.81;;;15.19;100.00
56604;BME280;42486;47.478;19.036;2023-05-19T05:21:34;100930.38;;;15.15;100.00
56604;BME280;42486;47.478;19.036;2023-05-19T05:24:40;100936.09;;;14.99;100.00
56604;BME280;42486;47.478;19.036;2023-05-19T05:27:45;100937.59;;;14.81;100.00
56604;BME280;42486;47.478;19.036;2023-05-19T05:30:49;100944.34;;;14.73;100.00
56604;BME280;42486;47.478;19.036;2023-05-19T05:33:58;100944.47;;;14.72;100.00
56604;BME280;42486;47.478;19.036;2023-05-19T05:37:02;100939.97;;;14.84;100.00
56604;BME280;42486;47.478;19.036;2023-05-19T05:40:08;100930.38;;;14.94;100.00
56604;BME280;42486;47.478;19.036;2023-05-19T05:43:11;100935.47;;;15.07;100.00
56604;BME280;42486;47.478;19.036;2023-05-19T05:46:15;100931.03;;;15.28;100.00
56604;BME280;42486;47.478;19.036;2023-05-19T05:49:20;100939.44;;;15.43;100.00
56604;BME280;42486;47.478;19.036;2023-05-19T05:52:26;100942.53;;;15.48;100.00
56604;BME280;42486;47.478;19.036;2023-05-19T05:55:31;100945.84;;;15.50;100.00
56604;BME280;42486;47.478;19.036;2023-05-19T05:58:36;100950.47;;;15.58;100.00
56604;BME280;42486;47.478;19.036;2023-05-19T06:01:44;100946.16;;;15.57;100.00
56604;BME280;42486;47.478;19.036;2023-05-19T06:04:52;100942.44;;;15.59;100.00
56604;BME280;42486;47.478;19.036;2023-05-19T06:07:55;100955.94;;;15.45;100.00
56604;BME280;42486;47.478;19.036;2023-05-19T06:10:58;100955.03;;;15.56;100.00
56604;BME280;42486;47.478;19.036;2023-05-19T06:14:03;100952.59;;;15.64;100.00
56604;BME280;42486;47.478;19.036;2023-05-19T06:17:05;100956.78;;;15.97;100.00
56604;BME280;42486;47.478;19.036;2023-05-19T06:20:10;100960.22;;;16.28;100.00
56604;BME280;42486;47.478;19.036;2023-05-19T06:23:15;100955.44;;;16.13;100.00
56604;BME280;42486;47.478;19.036;2023-05-19T06:26:20;100957.38;;;16.11;100.00
56604;BME280;42486;47.478;19.036;2023-05-19T06:29:25;100968.31;;;16.06;100.00
56604;BME280;42486;47.478;19.036;2023-05-19T06:32:29;100969.28;;;15.74;100.00
56604;BME280;42486;47.478;19.036;2023-05-19T06:35:33;100971.72;;;15.66;100.00
56604;BME280;42486;47.478;19.036;2023-05-19T06:38:38;100968.91;;;15.79;100.00
56604;BME280;42486;47.478;19.036;2023-05-19T06:41:41;100976.50;;;16.03;100.00
56604;BME280;42486;47.478;19.036;2023-05-19T06:44:44;100981.06;;;16.01;100.00
56604;BME280;42486;47.478;19.036;2023-05-19T06:47:50;100983.38;;;16.25;100.00
56604;BME280;42486;47.478;19.036;2023-05-19T06:50:54;100992.28;;;16.43;100.00
56604;BME280;42486;47.478;19.036;2023-05-19T06:53:57;100990.50;;;16.54;100.00
56604;BME280;42486;47.478;19.036;2023-05-19T06:57:00;100993.72;;;16.67;100.00
56604;BME280;42486;47.478;19.036;2023-05-19T07:00:07;100993.78;;;16.96;100.00
56604;BME280;42486;47.478;19.036;2023-05-19T07:03:16;101009.22;;;17.30;100.00
56604;BME280;42486;47.478;19.036;2023-05-19T07:06:21;101002.97;;;17.21;100.00
56604;BME280;42486;47.478;19.036;2023-05-19T07:09:25;101001.25;;;17.69;100.00
56604;BME280;42486;47.478;19.036;2023-05-19T07:12:30;101003.66;;;17.99;98.45
56604;BME280;42486;47.478;19.036;2023-05-19T07:15:34;100997.78;;;17.39;97.80
56604;BME280;42486;47.478;19.036;2023-05-19T07:18:38;100999.56;;;17.68;96.59
56604;BME280;42486;47.478;19.036;2023-05-19T07:21:41;100998.66;;;17.39;95.88
56604;BME280;42486;47.478;19.036;2023-05-19T07:24:48;100993.50;;;17.95;98.44
56604;BME280;42486;47.478;19.036;2023-05-19T07:27:54;100990.03;;;18.49;89.79
56604;BME280;42486;47.478;19.036;2023-05-19T07:30:57;100989.06;;;19.84;82.10
56604;BME280;42486;47.478;19.036;2023-05-19T07:33:59;100997.69;;;22.25;70.67
56604;BME280;42486;47.478;19.036;2023-05-19T07:37:02;100996.87;;;24.37;60.23
56604;BME280;42486;47.478;19.036;2023-05-19T07:40:05;100993.22;;;23.26;61.39
56604;BME280;42486;47.478;19.036;2023-05-19T07:43:09;100993.50;;;23.99;60.25
56604;BME280;42486;47.478;19.036;2023-05-19T07:46:12;100993.06;;;24.82;54.48
56604;BME280;42486;47.478;19.036;2023-05-19T07:49:17;100993.72;;;25.13;54.72
56604;BME280;42486;47.478;19.036;2023-05-19T07:52:20;100989.63;;;25.66;53.29
56604;BME280;42486;47.478;19.036;2023-05-19T07:55:24;100999.28;;;25.96;53.42
56604;BME280;42486;47.478;19.036;2023-05-19T07:58:27;100987.56;;;25.34;55.31
56604;BME280;42486;47.478;19.036;2023-05-19T08:01:30;100990.38;;;23.95;63.14
56604;BME280;42486;47.478;19.036;2023-05-19T08:04:34;100976.91;;;23.06;64.65
56604;BME280;42486;47.478;19.036;2023-05-19T08:07:38;100969.34;;;22.40;67.87
56604;BME280;42486;47.478;19.036;2023-05-19T08:10:42;100972.25;;;22.23;68.50
56604;BME280;42486;47.478;19.036;2023-05-19T08:13:45;100976.09;;;22.20;69.09
56604;BME280;42486;47.478;19.036;2023-05-19T08:16:53;100968.84;;;21.42;73.72
56604;BME280;42486;47.478;19.036;2023-05-19T08:19:57;100965.87;;;19.94;74.53
56604;BME280;42486;47.478;19.036;2023-05-19T08:23:02;100958.25;;;18.95;81.87
56604;BME280;42486;47.478;19.036;2023-05-19T08:26:06;100959.31;;;19.20;85.07
56604;BME280;42486;47.478;19.036;2023-05-19T08:29:11;100964.34;;;19.31;83.14
56604;BME280;42486;47.478;19.036;2023-05-19T08:32:15;100959.88;;;18.60;84.35
56604;BME280;42486;47.478;19.036;2023-05-19T08:35:19;100954.47;;;18.80;84.38
56604;BME280;42486;47.478;19.036;2023-05-19T08:38:23;100954.03;;;18.84;86.35
56604;BME280;42486;47.478;19.036;2023-05-19T08:41:26;100948.00;;;18.46;86.12
56604;BME280;42486;47.478;19.036;2023-05-19T08:44:29;100950.34;;;18.49;88.69
56604;BME280;42486;47.478;19.036;2023-05-19T08:47:32;100949.88;;;18.82;89.11
56604;BME280;42486;47.478;19.036;2023-05-19T08:50:38;100950.81;;;18.63;85.96
56604;BME280;42486;47.478;19.036;2023-05-19T08:53:56;100953.13;;;18.48;86.08
56604;BME280;42486;47.478;19.036;2023-05-19T08:57:01;100950.03;;;18.80;86.26
56604;BME280;42486;47.478;19.036;2023-05-19T09:00:07;100948.97;;;19.61;85.13
56604;BME280;42486;47.478;19.036;2023-05-19T09:03:14;100949.94;;;20.29;79.21
56604;BME280;42486;47.478;19.036;2023-05-19T09:06:25;100947.91;;;20.89;76.76
56604;BME280;42486;47.478;19.036;2023-05-19T09:09:28;100950.56;;;21.30;73.36
56604;BME280;42486;47.478;19.036;2023-05-19T09:12:50;100952.03;;;21.33;71.23
56604;BME280;42486;47.478;19.036;2023-05-19T09:15:57;100952.69;;;21.43;66.33
56604;BME280;42486;47.478;19.036;2023-05-19T09:19:01;100953.84;;;21.32;68.79
56604;BME280;42486;47.478;19.036;2023-05-19T09:22:05;100950.41;;;20.75;69.33
56604;BME280;42486;47.478;19.036;2023-05-19T09:25:20;100948.75;;;20.23;71.79
56604;BME280;42486;47.478;19.036;2023-05-19T09:28:28;100957.72;;;20.22;78.73
56604;BME280;42486;47.478;19.036;2023-05-19T09:31:32;100947.53;;;20.01;81.80
56604;BME280;42486;47.478;19.036;2023-05-19T09:34:38;100948.69;;;20.07;78.69
56604;BME280;42486;47.478;19.036;2023-05-19T09:37:43;100949.69;;;20.06;75.57
56604;BME280;42486;47.478;19.036;2023-05-19T09:40:47;100948.22;;;20.54;72.89
56604;BME280;42486;47.478;19.036;2023-05-19T09:43:53;100949.03;;;20.62;74.33
56604;BME280;42486;47.478;19.036;2023-05-19T09:47:06;100946.13;;;20.39;72.98
56604;BME280;42486;47.478;19.036;2023-05-19T09:50:29;100939.91;;;21.14;75.79
56604;BME280;42486;47.478;19.036;2023-05-19T09:54:07;100946.19;;;21.54;70.52
56604;BME280;42486;47.478;19.036;2023-05-19T09:57:12;100945.56;;;20.95;67.33
56604;BME280;42486;47.478;19.036;2023-05-19T10:00:17;100934.12;;;20.94;68.98
56604;BME280;42486;47.478;19.036;2023-05-19T10:13:22;100919.25;;;21.65;67.92
56604;BME280;42486;47.478;19.036;2023-05-19T10:16:39;100913.25;;;21.71;66.98
56604;BME280;42486;47.478;19.036;2023-05-19T10:23:21;100914.94;;;22.04;67.45
56604;BME280;42486;47.478;19.036;2023-05-19T10:39:47;100912.69;;;21.20;71.82
56604;BME280;42486;47.478;19.036;2023-05-19T10:46:17;100901.41;;;21.02;67.53
56604;BME280;42486;47.478;19.036;2023-05-19T10:49:26;100900.56;;;21.18;68.52
56604;BME280;42486;47.478;19.036;2023-05-19T10:52:51;100902.50;;;21.48;67.39
56604;BME280;42486;47.478;19.036;2023-05-19T10:55:55;100891.94;;;22.11;69.77
56604;BME280;42486;47.478;19.036;2023-05-19T10:59:01;100891.59;;;22.45;69.59
56604;BME280;42486;47.478;19.036;2023-05-19T11:02:07;100895.38;;;22.51;63.38
56604;BME280;42486;47.478;19.036;2023-05-19T11:05:15;100887.84;;;22.31;62.57
56604;BME280;42486;47.478;19.036;2023-05-19T11:08:31;100880.28;;;22.12;67.73
56604;BME280;42486;47.478;19.036;2023-05-19T11:11:48;100876.56;;;22.29;64.25
56604;BME280;42486;47.478;19.036;2023-05-19T11:14:51;100879.94;;;22.15;64.64
56604;BME280;42486;47.478;19.036;2023-05-19T11:17:55;100878.44;;;22.12;65.72
56604;BME280;42486;47.478;19.036;2023-05-19T11:20:59;100876.38;;;21.91;63.46
56604;BME280;42486;47.478;19.036;2023-05-19T11:24:07;100872.97;;;22.14;63.43
56604;BME280;42486;47.478;19.036;2023-05-19T11:27:31;100880.19;;;21.66;65.66
56604;BME280;42486;47.478;19.036;2023-05-19T11:30:34;100872.13;;;22.13;68.92
56604;BME280;42486;47.478;19.036;2023-05-19T11:33:38;100876.31;;;22.39;64.97
56604;BME280;42486;47.478;19.036;2023-05-19T11:36:41;100871.16;;;22.60;66.84
56604;BME280;42486;47.478;19.036;2023-05-19T11:39:45;100873.22;;;22.73;62.15
56604;BME280;42486;47.478;19.036;2023-05-19T11:42:48;100871.72;;;22.71;62.73
56604;BME280;42486;47.478;19.036;2023-05-19T11:45:52;100863.22;;;22.52;61.03
56604;BME280;42486;47.478;19.036;2023-05-19T11:48:55;100862.56;;;22.96;61.86
56604;BME280;42486;47.478;19.036;2023-05-19T11:51:59;100864.75;;;23.07;64.56
56604;BME280;42486;47.478;19.036;2023-05-19T11:55:03;100867.81;;;23.34;62.85
56604;BME280;42486;47.478;19.036;2023-05-19T11:58:06;100864.41;;;23.25;59.10
56604;BME280;42486;47.478;19.036;2023-05-19T12:01:09;100866.44;;;23.23;63.43
56604;BME280;42486;47.478;19.036;2023-05-19T12:04:27;100864.69;;;23.16;61.35
56604;BME280;42486;47.478;19.036;2023-05-19T12:07:36;100870.13;;;23.22;62.62
56604;BME280;42486;47.478;19.036;2023-05-19T12:10:40;100857.31;;;23.03;58.26
56604;BME280;42486;47.478;19.036;2023-05-19T12:13:44;100853.19;;;23.15;59.67
56604;BME280;42486;47.478;19.036;2023-05-19T12:16:47;100857.22;;;23.11;57.55
56604;BME280;42486;47.478;19.036;2023-05-19T12:19:51;100859.63;;;23.50;59.71
56604;BME280;42486;47.478;19.036;2023-05-19T12:22:55;100845.53;;;22.13;61.46
56604;BME280;42486;47.478;19.036;2023-05-19T12:25:57;100845.78;;;22.27;64.73
56604;BME280;42486;47.478;19.036;2023-05-19T12:29:00;100840.78;;;22.84;61.82
56604;BME280;42486;47.478;19.036;2023-05-19T12:32:03;100839.03;;;23.15;58.39
56604;BME280;42486;47.478;19.036;2023-05-19T12:35:06;100836.28;;;23.23;57.85
56604;BME280;42486;47.478;19.036;2023-05-19T12:38:12;100832.12;;;23.20;58.03
56604;BME280;42486;47.478;19.036;2023-05-19T12:41:16;100821.13;;;22.71;58.09
56604;BME280;42486;47.478;19.036;2023-05-19T12:44:21;100812.97;;;22.72;58.14
56604;BME280;42486;47.478;19.036;2023-05-19T12:47:31;100812.22;;;22.78;59.30
56604;BME280;42486;47.478;19.036;2023-05-19T12:50:36;100810.81;;;23.20;59.17
56604;BME280;42486;47.478;19.036;2023-05-19T12:53:39;100818.72;;;23.43;59.31
56604;BME280;42486;47.478;19.036;2023-05-19T12:56:48;100812.19;;;23.46;60.07
56604;BME280;42486;47.478;19.036;2023-05-19T12:59:51;100805.06;;;23.53;57.74
56604;BME280;42486;47.478;19.036;2023-05-19T13:05:59;100804.56;;;23.28;58.80
56604;BME280;42486;47.478;19.036;2023-05-19T13:09:04;100807.09;;;23.51;58.19
56604;BME280;42486;47.478;19.036;2023-05-19T13:12:09;100802.63;;;23.37;58.82
56604;BME280;42486;47.478;19.036;2023-05-19T13:15:13;100799.31;;;23.35;60.15
56604;BME280;42486;47.478;19.036;2023-05-19T13:18:15;100799.19;;;23.58;59.38
56604;BME280;42486;47.478;19.036;2023-05-19T13:21:19;100792.00;;;23.58;58.49
56604;BME280;42486;47.478;19.036;2023-05-19T13:24:22;100789.13;;;23.23;60.21
56604;BME280;42486;47.478;19.036;2023-05-19T13:27:25;100793.84;;;22.83;60.21
56604;BME280;42486;47.478;19.036;2023-05-19T13:30:33;100787.09;;;22.58;61.20
56604;BME280;42486;47.478;19.036;2023-05-19T13:33:37;100782.75;;;22.80;61.15
56604;BME280;42486;47.478;19.036;2023-05-19T13:36:40;100779.75;;;23.27;62.48
56604;BME280;42486;47.478;19.036;2023-05-19T13:39:47;100776.25;;;23.12;60.59
56604;BME280;42486;47.478;19.036;2023-05-19T13:42:50;100768.97;;;22.91;61.96
56604;BME280;42486;47.478;19.036;2023-05-19T13:45:53;100768.50;;;22.87;62.96
56604;BME280;42486;47.478;19.036;2023-05-19T13:48:56;100762.13;;;23.48;60.67
56604;BME280;42486;47.478;19.036;2023-05-19T13:51:59;100764.81;;;23.69;59.81
56604;BME280;42486;47.478;19.036;2023-05-19T13:55:02;100760.38;;;23.55;61.19
56604;BME280;42486;47.478;19.036;2023-05-19T13:58:05;100764.28;;;23.23;60.77
56604;BME280;42486;47.478;19.036;2023-05-19T14:01:08;100765.47;;;22.91;57.26
56604;BME280;42486;47.478;19.036;2023-05-19T14:04:11;100750.62;;;22.96;63.23
56604;BME280;42486;47.478;19.036;2023-05-19T14:07:15;100745.81;;;22.77;56.49
56604;BME280;42486;47.478;19.036;2023-05-19T14:10:18;100752.59;;;22.64;61.00
56604;BME280;42486;47.478;19.036;2023-05-19T14:13:21;100748.00;;;22.58;61.49
56604;BME280;42486;47.478;19.036;2023-05-19T14:16:40;100740.50;;;22.39;62.66
56604;BME280;42486;47.478;19.036;2023-05-19T14:19:49;100742.75;;;22.50;62.40
56604;BME280;42486;47.478;19.036;2023-05-19T14:22:52;100740.81;;;22.74;62.37
56604;BME280;42486;47.478;19.036;2023-05-19T14:25:57;100743.62;;;23.10;62.65
56604;BME280;42486;47.478;19.036;2023-05-19T14:29:00;100748.28;;;23.23;57.73
56604;BME280;42486;47.478;19.036;2023-05-19T14:32:06;100748.00;;;23.33;59.81
56604;BME280;42486;47.478;19.036;2023-05-19T14:35:12;100746.91;;;22.53;57.23
56604;BME280;42486;47.478;19.036;2023-05-19T14:38:14;100744.59;;;22.64;58.74
56604;BME280;42486;47.478;19.036;2023-05-19T14:41:17;100748.09;;;22.80;58.96
56604;BME280;42486;47.478;19.036;2023-05-19T14:44:22;100736.00;;;23.07;62.48
56604;BME280;42486;47.478;19.036;2023-05-19T14:47:34;100738.81;;;23.35;56.53
56604;BME280;42486;47.478;19.036;2023-05-19T14:50:40;100735.41;;;23.26;57.21
56604;BME280;42486;47.478;19.036;2023-05-19T14:53:42;100742.63;;;23.47;56.72
56604;BME280;42486;47.478;19.036;2023-05-19T14:56:47;100731.81;;;23.70;58.08
56604;BME280;42486;47.478;19.036;2023-05-19T14:59:50;100737.69;;;23.81;58.53
56604;BME280;42486;47.478;19.036;2023-05-19T15:02:54;100734.59;;;23.62;55.41
56604;BME280;42486;47.478;19.036;2023-05-19T15:06:00;100735.66;;;23.46;57.24
56604;BME280;42486;47.478;19.036;2023-05-19T15:09:04;100737.28;;;22.96;53.68
56604;BME280;42486;47.478;19.036;2023-05-19T15:12:07;100732.84;;;22.74;57.34
56604;BME280;42486;47.478;19.036;2023-05-19T15:15:10;100719.69;;;22.57;61.23
56604;BME280;42486;47.478;19.036;2023-05-19T15:18:13;100724.56;;;22.54;62.12
56604;BME280;42486;47.478;19.036;2023-05-19T15:21:22;100723.75;;;22.68;59.43
56604;BME280;42486;47.478;19.036;2023-05-19T15:24:25;100723.38;;;22.86;58.16
56604;BME280;42486;47.478;19.036;2023-05-19T15:27:28;100729.81;;;23.21;58.31
56604;BME280;42486;47.478;19.036;2023-05-19T15:30:31;100731.41;;;23.52;54.70
56604;BME280;42486;47.478;19.036;2023-05-19T15:33:35;100737.38;;;23.54;56.53
56604;BME280;42486;47.478;19.036;2023-05-19T15:36:38;100729.75;;;23.51;57.20
56604;BME280;42486;47.478;19.036;2023-05-19T15:39:41;100729.78;;;23.36;56.67
56604;BME280;42486;47.478;19.036;2023-05-19T15:42:44;100726.09;;;23.37;54.93
56604;BME280;42486;47.478;19.036;2023-05-19T15:45:48;100718.72;;;23.03;54.52
56604;BME280;42486;47.478;19.036;2023-05-19T15:48:57;100716.25;;;23.38;55.72
56604;BME280;42486;47.478;19.036;2023-05-19T15:52:02;100721.56;;;23.52;56.37
56604;BME280;42486;47.478;19.036;2023-05-19T15:55:06;100720.66;;;23.67;58.64
56604;BME280;42486;47.478;19.036;2023-05-19T15:58:09;100719.63;;;23.25;57.96
56604;BME280;42486;47.478;19.036;2023-05-19T16:01:13;100722.50;;;23.08;59.63
56604;BME280;42486;47.478;19.036;2023-05-19T16:04:16;100718.53;;;23.04;61.88
56604;BME280;42486;47.478;19.036;2023-05-19T16:07:20;100715.88;;;23.04;57.61
56604;BME280;42486;47.478;19.036;2023-05-19T16:10:25;100721.19;;;23.04;56.77
56604;BME280;42486;47.478;19.036;2023-05-19T16:13:28;100723.22;;;23.17;57.74
56604;BME280;42486;47.478;19.036;2023-05-19T16:16:32;100726.88;;;23.16;58.07
56604;BME280;42486;47.478;19.036;2023-05-19T16:19:35;100721.03;;;23.06;58.87
56604;BME280;42486;47.478;19.036;2023-05-19T16:22:38;100723.66;;;22.91;61.35
56604;BME280;42486;47.478;19.036;2023-05-19T16:25:43;100723.31;;;22.79;59.92
56604;BME280;42486;47.478;19.036;2023-05-19T16:28:48;100725.31;;;22.62;60.72
56604;BME280;42486;47.478;19.036;2023-05-19T16:31:51;100722.66;;;22.48;65.48
56604;BME280;42486;47.478;19.036;2023-05-19T16:34:54;100733.34;;;22.25;64.62
56604;BME280;42486;47.478;19.036;2023-05-19T16:37:57;100719.66;;;22.05;60.72
56604;BME280;42486;47.478;19.036;2023-05-19T16:41:00;100733.16;;;22.03;64.82
56604;BME280;42486;47.478;19.036;2023-05-19T16:44:05;100730.34;;;21.96;62.15
56604;BME280;42486;47.478;19.036;2023-05-19T16:47:08;100730.78;;;21.85;62.82
56604;BME280;42486;47.478;19.036;2023-05-19T16:50:11;100717.84;;;21.82;66.53
56604;BME280;42486;47.478;19.036;2023-05-19T16:53:14;100718.25;;;21.71;66.86
56604;BME280;42486;47.478;19.036;2023-05-19T16:56:18;100712.81;;;21.64;68.25
56604;BME280;42486;47.478;19.036;2023-05-19T16:59:24;100714.47;;;21.65;67.64
56604;BME280;42486;47.478;19.036;2023-05-19T17:02:27;100719.91;;;21.49;66.71